createdAt,value
2018-11-06T00:01:29.242Z,13.08
2018-11-06T00:02:27.959Z,13.23
2018-11-06T00:03:26.541Z,13.11
2018-11-06T00:04:25.121Z,13.04
2018-11-06T00:05:23.897Z,13.07
2018-11-06T00:06:22.590Z,13.07
2018-11-06T00:07:21.132Z,12.97
2018-11-06T00:08:19.649Z,12.96
2018-11-06T00:09:18.337Z,12.86
2018-11-06T00:10:16.803Z,12.78
2018-11-06T00:11:15.347Z,12.86
2018-11-06T00:12:14.008Z,12.78
2018-11-06T00:13:12.730Z,12.78
2018-11-06T00:15:52.817Z,12.71
2018-11-06T00:16:51.408Z,12.83
2018-11-06T00:17:50.001Z,12.82
2018-11-06T00:18:48.674Z,12.71
2018-11-06T00:19:47.220Z,12.7
2018-11-06T00:20:45.705Z,12.71
2018-11-06T00:21:44.224Z,12.67
2018-11-06T00:22:42.769Z,12.64
2018-11-06T00:23:41.453Z,12.7
2018-11-06T00:24:40.074Z,12.83
2018-11-06T00:25:38.708Z,12.82
2018-11-06T00:26:37.266Z,12.86
2018-11-06T00:27:35.843Z,12.93
2018-11-06T00:28:34.500Z,12.93
2018-11-06T00:31:14.827Z,12.77
2018-11-06T00:32:13.351Z,12.97
2018-11-06T00:33:11.882Z,12.95
2018-11-06T00:34:10.500Z,12.93
2018-11-06T00:36:33.245Z,12.86
2018-11-06T00:37:31.856Z,12.93
2018-11-06T00:38:31.390Z,12.95
2018-11-06T00:39:29.966Z,12.87
2018-11-06T00:40:28.659Z,12.67
2018-11-06T00:41:27.169Z,12.67
2018-11-06T00:42:25.751Z,12.74
2018-11-06T00:43:24.282Z,12.74
2018-11-06T00:44:22.832Z,12.72
2018-11-06T00:45:21.422Z,12.71
2018-11-06T00:46:20.633Z,12.78
2018-11-06T00:47:18.532Z,12.86
2018-11-06T00:49:58.975Z,12.82
2018-11-06T00:52:39.480Z,12.67
2018-11-06T00:53:38.116Z,12.65
2018-11-06T00:54:36.869Z,12.72
2018-11-06T00:55:35.500Z,12.57
2018-11-06T00:56:34.189Z,12.53
2018-11-06T00:57:32.830Z,12.71
2018-11-06T00:58:31.350Z,12.62
2018-11-06T00:59:30.102Z,12.67
2018-11-06T01:00:28.764Z,12.5
2018-11-06T01:01:27.278Z,12.65
2018-11-06T01:02:25.943Z,12.53
2018-11-06T01:03:24.639Z,12.65
2018-11-06T01:04:23.269Z,12.62
2018-11-06T01:05:21.773Z,12.6
2018-11-06T01:06:20.439Z,12.71
2018-11-06T01:07:19.029Z,12.68
2018-11-06T01:08:17.573Z,12.65
2018-11-06T01:09:16.172Z,12.62
2018-11-06T01:10:14.741Z,12.54
2018-11-06T01:11:13.325Z,12.5
2018-11-06T01:12:12.543Z,12.49
2018-11-06T01:13:11.152Z,12.53
2018-11-06T01:15:51.241Z,12.53
2018-11-06T01:16:49.899Z,12.54
2018-11-06T01:17:48.553Z,12.56
2018-11-06T01:18:47.256Z,12.53
2018-11-06T01:19:45.774Z,12.65
2018-11-06T01:20:44.354Z,12.6
2018-11-06T01:21:42.934Z,12.64
2018-11-06T01:22:41.445Z,12.68
2018-11-06T01:23:40.074Z,12.59
2018-11-06T01:24:38.670Z,12.64
2018-11-06T01:25:37.305Z,12.65
2018-11-06T01:26:35.811Z,12.67
2018-11-06T01:27:34.436Z,12.54
2018-11-06T01:28:32.973Z,12.65
2018-11-06T01:29:31.543Z,12.64
2018-11-06T01:30:30.293Z,12.6
2018-11-06T01:31:28.816Z,12.7
2018-11-06T01:32:27.546Z,12.62
2018-11-06T01:44:53.646Z,12.74
2018-11-06T01:45:52.270Z,12.7
2018-11-06T01:46:50.821Z,12.72
2018-11-06T01:47:49.348Z,12.67
2018-11-06T01:51:28.622Z,12.7
2018-11-06T01:52:27.183Z,12.65
2018-11-06T01:56:08.391Z,12.17
2018-11-06T01:57:06.970Z,12.37
2018-11-06T01:58:06.517Z,12.37
2018-11-06T01:59:05.069Z,12.47
2018-11-06T02:00:03.623Z,12.47
2018-11-06T02:02:11.514Z,12.52
2018-11-06T02:03:10.172Z,12.49
2018-11-06T02:04:08.814Z,12.39
2018-11-06T02:05:07.393Z,12.28
2018-11-06T02:06:05.968Z,12.27
2018-11-06T02:07:04.587Z,12.28
2018-11-06T02:08:04.947Z,12.38
2018-11-06T02:09:03.512Z,12.42
2018-11-06T02:10:02.035Z,12.28
2018-11-06T02:11:00.747Z,12.24
2018-11-06T02:11:59.339Z,12.42
2018-11-06T02:12:57.951Z,12.38
2018-11-06T02:13:56.530Z,12.32
2018-11-06T02:14:55.063Z,12.37
2018-11-06T02:15:53.623Z,12.17
2018-11-06T02:16:52.174Z,12.12
2018-11-06T02:17:50.709Z,12.09
2018-11-06T02:18:49.279Z,12.32
2018-11-06T02:19:47.830Z,12.34
2018-11-06T02:20:46.403Z,12.39
2018-11-06T02:21:44.881Z,12.38
2018-11-06T02:22:43.535Z,12.45
2018-11-06T02:23:42.233Z,12.38
2018-11-06T02:24:40.901Z,12.52
2018-11-06T02:25:39.698Z,12.6
2018-11-06T02:26:38.454Z,12.52
2018-11-06T02:27:36.951Z,12.53
2018-11-06T02:28:35.537Z,12.42
2018-11-06T02:29:34.116Z,12.46
2018-11-06T02:32:14.180Z,12.41
2018-11-06T02:33:12.740Z,12.42
2018-11-06T02:34:11.284Z,12.39
2018-11-06T02:35:54.797Z,12.38
2018-11-06T02:36:53.352Z,12.53
2018-11-06T02:37:52.250Z,12.5
2018-11-06T02:38:50.839Z,12.28
2018-11-06T02:39:49.424Z,12.14
2018-11-06T02:44:54.447Z,12.12
2018-11-06T02:45:52.998Z,12.17
2018-11-06T02:46:51.602Z,12.02
2018-11-06T02:47:50.237Z,12.01
2018-11-06T02:48:48.825Z,11.99
2018-11-06T02:49:47.370Z,11.99
2018-11-06T02:50:46.032Z,11.85
2018-11-06T02:51:44.572Z,11.47
2018-11-06T02:52:43.120Z,11.51
2018-11-06T02:53:41.812Z,11.52
2018-11-06T02:54:40.553Z,11.57
2018-11-06T02:55:39.116Z,11.61
2018-11-06T02:56:37.726Z,11.75
2018-11-06T02:57:36.338Z,11.6
2018-11-06T02:58:34.871Z,11.88
2018-11-06T02:59:33.393Z,11.76
2018-11-06T03:02:13.608Z,11.78
2018-11-06T03:03:12.232Z,11.8
2018-11-06T03:04:10.806Z,11.85
2018-11-06T03:05:09.325Z,11.95
2018-11-06T03:06:08.090Z,11.99
2018-11-06T03:07:06.698Z,12.09
2018-11-06T03:08:05.279Z,12.09
2018-11-06T03:09:03.863Z,11.96
2018-11-06T03:10:02.513Z,11.94
2018-11-06T03:11:00.983Z,12.04
2018-11-06T03:11:59.508Z,12.12
2018-11-06T03:12:58.057Z,11.99
2018-11-06T03:13:56.629Z,11.98
2018-11-06T03:14:55.173Z,12.01
2018-11-06T03:15:53.837Z,11.91
2018-11-06T03:16:52.527Z,11.95
2018-11-06T03:17:50.999Z,12.09
2018-11-06T03:18:49.715Z,12.05
2018-11-06T03:21:12.458Z,11.82
2018-11-06T03:22:11.022Z,11.78
2018-11-06T03:23:09.606Z,11.73
2018-11-06T03:24:08.246Z,11.85
2018-11-06T03:25:06.845Z,11.69
2018-11-06T03:26:05.390Z,11.52
2018-11-06T03:27:04.997Z,11.7
2018-11-06T03:28:03.446Z,11.72
2018-11-06T03:29:02.343Z,11.51
2018-11-06T03:30:00.945Z,11.57
2018-11-06T03:32:41.308Z,11.64
2018-11-06T03:33:39.989Z,11.64
2018-11-06T03:38:02.056Z,11.62
2018-11-06T03:39:00.569Z,11.75
2018-11-06T03:39:59.122Z,11.78
2018-11-06T03:40:57.676Z,11.91
2018-11-06T03:41:56.212Z,11.86
2018-11-06T03:42:54.728Z,11.73
2018-11-06T03:43:53.264Z,11.49
2018-11-06T03:44:51.978Z,11.29
2018-11-06T03:45:50.664Z,11.42
2018-11-06T03:46:49.159Z,11.47
2018-11-06T03:47:47.851Z,11.51
2018-11-06T03:48:46.484Z,11.44
2018-11-06T03:49:44.933Z,11.4
2018-11-06T03:50:43.462Z,11.58
2018-11-06T03:51:42.064Z,11.28
2018-11-06T03:52:40.744Z,11.46
2018-11-06T03:53:39.382Z,11.55
2018-11-06T03:54:38.040Z,11.64
2018-11-06T03:55:36.659Z,11.52
2018-11-06T03:56:35.235Z,11.49
2018-11-06T03:57:33.966Z,11.57
2018-11-06T03:58:32.543Z,11.58
2018-11-06T03:59:31.141Z,11.62
2018-11-06T04:00:29.726Z,11.49
2018-11-06T04:01:28.326Z,11.35
2018-11-06T04:02:26.832Z,11.21
2018-11-06T04:03:25.433Z,11.21
2018-11-06T04:04:24.674Z,11.29
2018-11-06T04:05:23.164Z,11.1
2018-11-06T04:06:21.960Z,10.94
2018-11-06T04:07:20.599Z,11.03
2018-11-06T04:08:19.130Z,11.07
2018-11-06T04:09:17.765Z,11.09
2018-11-06T04:10:16.529Z,11.21
2018-11-06T04:11:15.060Z,11.06
2018-11-06T04:12:13.565Z,11.07
2018-11-06T04:13:12.343Z,11
2018-11-06T04:14:10.917Z,11.11
2018-11-06T04:15:09.435Z,11.19
2018-11-06T04:16:08.150Z,11.1
2018-11-06T04:17:06.680Z,10.91
2018-11-06T04:18:05.324Z,10.99
2018-11-06T04:19:03.984Z,11.1
2018-11-06T04:20:02.708Z,11.06
2018-11-06T04:21:01.295Z,11.22
2018-11-06T04:22:00.008Z,11.35
2018-11-06T04:22:58.640Z,11.37
2018-11-06T04:23:57.170Z,11.35
2018-11-06T04:24:55.723Z,11.35
2018-11-06T04:25:54.301Z,11.32
2018-11-06T04:26:52.867Z,11.04
2018-11-06T04:27:51.406Z,11.15
2018-11-06T04:28:50.104Z,11.18
2018-11-06T04:29:48.900Z,11.18
2018-11-06T04:30:47.416Z,11.17
2018-11-06T04:31:46.157Z,11.18
2018-11-06T04:32:44.663Z,11.25
2018-11-06T04:35:24.983Z,11.18
2018-11-06T04:36:23.586Z,11.15
2018-11-06T04:37:22.196Z,11.32
2018-11-06T04:38:20.829Z,11.27
2018-11-06T04:39:19.386Z,11.15
2018-11-06T04:40:18.832Z,11.18
2018-11-06T04:41:17.396Z,11.24
2018-11-06T04:42:15.960Z,11.17
2018-11-06T04:43:14.615Z,11.19
2018-11-06T04:44:13.283Z,11.21
2018-11-06T04:45:11.946Z,11.27
2018-11-06T04:46:10.470Z,11.03
2018-11-06T04:47:09.027Z,10.88
2018-11-06T04:50:48.062Z,10.64
2018-11-06T04:51:46.657Z,10.4
2018-11-06T04:52:45.285Z,10.6
2018-11-06T04:53:44.013Z,10.18
2018-11-06T04:54:42.613Z,10.18
2018-11-06T04:55:41.126Z,10.32
2018-11-06T04:56:39.891Z,10.4
2018-11-06T04:57:38.571Z,10.12
2018-11-06T04:58:46.843Z,10.18
2018-11-06T04:59:45.383Z,9.93
2018-11-06T05:00:43.986Z,9.91
2018-11-06T05:01:42.530Z,9.93
2018-11-06T05:02:41.135Z,9.97
2018-11-06T05:03:39.780Z,9.86
2018-11-06T05:04:38.352Z,10.02
2018-11-06T05:05:37.607Z,9.99
2018-11-06T05:06:36.124Z,9.87
2018-11-06T05:09:27.588Z,9.96
2018-11-06T05:10:26.413Z,10.23
2018-11-06T05:11:24.950Z,10.44
2018-11-06T05:12:23.556Z,10.59
2018-11-06T05:13:22.128Z,10.55
2018-11-06T05:14:20.756Z,10.15
2018-11-06T05:15:19.213Z,10.18
2018-11-06T05:16:17.746Z,10.26
2018-11-06T05:17:16.308Z,10.29
2018-11-06T05:18:14.806Z,10.53
2018-11-06T05:19:13.342Z,10.53
2018-11-06T05:20:12.011Z,10.53
2018-11-06T05:21:10.555Z,10.56
2018-11-06T05:22:09.014Z,10.38
2018-11-06T05:23:07.597Z,10.38
2018-11-06T05:24:06.209Z,10.29
2018-11-06T05:25:04.938Z,10.32
2018-11-06T05:26:03.444Z,10.34
2018-11-06T05:27:02.200Z,10.51
2018-11-06T05:28:00.764Z,10.68
2018-11-06T05:28:59.258Z,10.67
2018-11-06T05:29:57.913Z,10.59
2018-11-06T05:30:56.487Z,10.36
2018-11-06T05:31:55.013Z,10.44
2018-11-06T05:32:53.701Z,10.52
2018-11-06T05:33:52.083Z,10.41
2018-11-06T05:34:50.699Z,10.52
2018-11-06T05:35:49.101Z,10.48
2018-11-06T05:36:47.598Z,10.7
2018-11-06T05:37:46.137Z,10.78
2018-11-06T05:38:44.720Z,10.73
2018-11-06T05:39:43.444Z,10.59
2018-11-06T05:40:42.031Z,10.61
2018-11-06T05:41:41.007Z,10.53
2018-11-06T05:42:39.590Z,10.73
2018-11-06T05:43:38.110Z,10.82
2018-11-06T05:44:36.711Z,10.66
2018-11-06T05:45:35.366Z,10.51
2018-11-06T05:46:33.870Z,10.44
2018-11-06T05:47:32.568Z,10.56
2018-11-06T05:48:31.118Z,10.56
2018-11-06T05:49:29.670Z,10.74
2018-11-06T05:52:10.215Z,10.66
2018-11-06T05:53:08.803Z,10.48
2018-11-06T05:54:07.503Z,10.67
2018-11-06T05:55:06.066Z,10.76
2018-11-06T05:56:04.713Z,10.53
2018-11-06T05:58:45.038Z,10.27
2018-11-06T05:59:43.752Z,10.26
2018-11-06T06:00:42.598Z,10.4
2018-11-06T06:01:41.014Z,10.6
2018-11-06T06:02:39.751Z,10.71
2018-11-06T06:03:38.529Z,10.61
2018-11-06T06:04:37.046Z,10.71
2018-11-06T06:05:35.547Z,10.59
2018-11-06T06:06:34.246Z,10.59
2018-11-06T06:07:32.849Z,10.82
2018-11-06T06:08:31.496Z,10.61
2018-11-06T06:09:29.996Z,10.56
2018-11-06T06:10:28.567Z,10.53
2018-11-06T06:11:27.122Z,10.52
2018-11-06T06:12:25.916Z,10.67
2018-11-06T06:13:24.778Z,10.66
2018-11-06T06:14:23.141Z,10.55
2018-11-06T06:17:03.284Z,10.68
2018-11-06T06:18:01.841Z,10.74
2018-11-06T06:19:00.371Z,10.89
2018-11-06T06:19:59.357Z,10.99
2018-11-06T06:20:58.014Z,11.07
2018-11-06T06:21:57.148Z,11.03
2018-11-06T06:22:55.732Z,11.04
2018-11-06T06:23:54.389Z,11.09
2018-11-06T06:24:53.020Z,11.21
2018-11-06T06:45:16.822Z,11.21
2018-11-06T06:46:15.457Z,11.35
2018-11-06T06:47:13.924Z,11.36
2018-11-06T06:48:12.619Z,11.43
2018-11-06T06:49:11.116Z,11.37
2018-11-06T06:50:09.622Z,11.36
2018-11-06T06:51:08.397Z,11.42
2018-11-06T06:52:06.939Z,11.33
2018-11-06T06:53:05.476Z,11.42
2018-11-06T06:54:04.197Z,11.42
2018-11-06T06:55:02.898Z,11.55
2018-11-06T06:56:01.382Z,11.4
2018-11-06T06:57:00.109Z,11.47
2018-11-06T06:57:58.736Z,11.54
2018-11-06T06:58:57.238Z,11.51
2018-11-06T06:59:55.997Z,11.4
2018-11-06T07:00:54.997Z,11.27
2018-11-06T07:01:53.503Z,11.27
2018-11-06T07:02:52.145Z,11.27
2018-11-06T07:03:51.240Z,11.27
2018-11-06T07:04:49.732Z,11.44
2018-11-06T07:05:48.311Z,11.57
2018-11-06T07:06:46.882Z,11.62
2018-11-06T07:07:45.406Z,11.72
2018-11-06T07:08:43.894Z,12.14
2018-11-06T07:09:42.443Z,12.12
2018-11-06T07:10:40.944Z,12.1
2018-11-06T07:11:39.580Z,11.65
2018-11-06T07:12:38.083Z,11.67
2018-11-06T07:13:36.601Z,11.79
2018-11-06T07:14:35.143Z,11.83
2018-11-06T07:15:33.918Z,11.79
2018-11-06T07:16:32.789Z,11.73
2018-11-06T07:17:31.409Z,11.7
2018-11-06T07:18:30.077Z,11.76
2018-11-06T07:19:28.574Z,11.86
2018-11-06T07:20:27.074Z,11.98
2018-11-06T07:21:25.634Z,11.91
2018-11-06T07:22:24.205Z,12.74
2018-11-06T07:23:22.852Z,12.67
2018-11-06T07:24:21.315Z,12.65
2018-11-06T07:25:20.927Z,12.97
2018-11-06T07:26:18.886Z,12.74
2018-11-06T07:27:17.359Z,12.64
2018-11-06T07:28:16.025Z,12.56
2018-11-06T07:29:14.707Z,12.32
2018-11-06T07:30:13.225Z,12.27
2018-11-06T07:31:11.737Z,11.96
2018-11-06T07:32:10.266Z,11.94
2018-11-06T07:33:08.845Z,12.01
2018-11-06T07:34:07.386Z,12.04
2018-11-06T07:35:06.108Z,11.99
2018-11-06T07:36:04.932Z,12.04
2018-11-06T07:37:02.923Z,12.34
2018-11-06T07:38:01.505Z,12.39
2018-11-06T07:39:00.628Z,12.12
2018-11-06T07:39:59.172Z,12.04
2018-11-06T07:40:57.866Z,12.04
2018-11-06T07:41:56.350Z,12.12
2018-11-06T07:42:55.055Z,12.17
2018-11-06T07:43:53.636Z,12.16
2018-11-06T07:44:52.373Z,12.04
2018-11-06T07:45:50.969Z,11.94
2018-11-06T07:46:49.476Z,11.8
2018-11-06T07:47:48.304Z,11.83
2018-11-06T07:49:48.013Z,12.16
2018-11-06T07:50:46.700Z,12.31
2018-11-06T07:51:45.184Z,12.7
2018-11-06T07:52:43.804Z,12.41
2018-11-06T07:53:42.529Z,12.27
2018-11-06T07:54:41.082Z,11.91
2018-11-06T07:55:39.675Z,12.13
2018-11-06T07:56:38.452Z,12.62
2018-11-06T07:57:36.977Z,12.67
2018-11-06T07:58:36.517Z,12.67
2018-11-06T07:59:35.122Z,12.59
2018-11-06T08:00:33.569Z,12.64
2018-11-06T08:01:32.097Z,12.65
2018-11-06T08:02:30.787Z,12.67
2018-11-06T08:03:29.284Z,12.6
2018-11-06T08:04:27.957Z,12.7
2018-11-06T08:05:26.451Z,12.71
2018-11-06T08:06:25.127Z,12.7
2018-11-06T08:07:23.474Z,12.85
2018-11-06T08:08:21.999Z,12.85
2018-11-06T08:09:20.650Z,12.93
2018-11-06T08:10:19.092Z,12.93
2018-11-06T08:11:17.664Z,12.96
2018-11-06T08:12:16.358Z,12.95
2018-11-06T08:13:14.996Z,13.07
2018-11-06T08:14:13.689Z,13.15
2018-11-06T08:16:54.263Z,13.2
2018-11-06T08:17:52.913Z,13.19
2018-11-06T08:18:52.222Z,13.1
2018-11-06T08:19:50.909Z,13.32
2018-11-06T08:20:49.410Z,13.77
2018-11-06T08:21:47.956Z,13.92
2018-11-06T08:22:46.627Z,13.67
2018-11-06T08:23:45.155Z,13.57
2018-11-06T08:46:13.759Z,13.51
2018-11-06T08:47:12.283Z,13.59
2018-11-06T08:48:11.051Z,13.57
2018-11-06T08:50:51.312Z,13.69
2018-11-06T08:51:50.048Z,13.69
2018-11-06T08:52:48.791Z,13.92
2018-11-06T08:53:47.310Z,13.97
2018-11-06T08:54:46.012Z,14
2018-11-06T08:55:44.526Z,13.77
2018-11-06T08:56:43.054Z,13.78
2018-11-06T08:57:41.532Z,13.67
2018-11-06T08:58:40.201Z,14.07
2018-11-06T08:59:38.945Z,14.07
2018-11-06T09:00:37.557Z,14.21
2018-11-06T09:01:36.209Z,14.18
2018-11-06T09:02:34.938Z,14.27
2018-11-06T09:03:33.372Z,14.27
2018-11-06T09:04:31.878Z,14.28
2018-11-06T09:05:30.473Z,14.32
2018-11-06T09:06:28.989Z,14.27
2018-11-06T09:07:27.596Z,14.29
2018-11-06T09:08:26.108Z,14.27
2018-11-06T09:09:24.644Z,14.35
2018-11-06T09:10:23.136Z,14.29
2018-11-06T09:11:21.690Z,14.21
2018-11-06T09:12:20.488Z,14.28
2018-11-06T09:14:23.543Z,14.24
2018-11-06T09:15:22.200Z,14.29
2018-11-06T09:16:20.834Z,14.35
2018-11-06T09:17:19.358Z,14.51
2018-11-06T09:18:17.921Z,14.45
2018-11-06T09:19:16.556Z,14.47
2018-11-06T09:20:15.104Z,14.54
2018-11-06T09:21:13.652Z,14.55
2018-11-06T09:22:12.225Z,14.54
2018-11-06T09:23:10.784Z,14.5
2018-11-06T09:24:09.312Z,14.5
2018-11-06T09:25:07.986Z,14.51
2018-11-06T09:26:06.765Z,14.5
2018-11-06T09:27:05.302Z,14.5
2018-11-06T09:28:03.790Z,14.55
2018-11-06T09:29:02.359Z,14.57
2018-11-06T09:30:00.865Z,14.73
2018-11-06T09:30:59.596Z,14.65
2018-11-06T09:31:58.471Z,14.94
2018-11-06T09:32:57.021Z,14.99
2018-11-06T09:33:55.501Z,15.07
2018-11-06T09:34:54.191Z,15.06
2018-11-06T09:35:52.760Z,15.02
2018-11-06T09:36:51.315Z,15.02
2018-11-06T09:37:50.025Z,15.06
2018-11-06T09:38:48.695Z,15.09
2018-11-06T09:39:47.243Z,14.75
2018-11-06T09:40:45.755Z,14.81
2018-11-06T09:41:44.430Z,14.91
2018-11-06T09:42:42.989Z,14.88
2018-11-06T09:43:41.573Z,14.62
2018-11-06T09:44:40.124Z,14.39
2018-11-06T09:45:38.614Z,14.86
2018-11-06T09:46:37.177Z,15.06
2018-11-06T09:47:35.717Z,15.01
2018-11-06T09:48:34.362Z,14.99
2018-11-06T09:49:32.945Z,15.13
2018-11-06T09:50:31.448Z,14.7
2018-11-06T09:51:30.013Z,14.61
2018-11-06T09:52:28.577Z,14.57
2018-11-06T09:53:27.078Z,14.61
2018-11-06T09:54:25.628Z,14.6
2018-11-06T09:55:24.149Z,14.61
2018-11-06T09:56:22.815Z,14.5
2018-11-06T09:57:21.361Z,14.64
2018-11-06T09:58:19.954Z,14.81
2018-11-06T09:59:18.563Z,14.84
2018-11-06T10:00:17.232Z,14.64
2018-11-06T10:01:15.618Z,14.75
2018-11-06T10:02:14.291Z,14.8
2018-11-06T10:03:12.954Z,14.86
2018-11-06T10:04:11.533Z,15.11
2018-11-06T10:05:10.073Z,15.23
2018-11-06T10:06:09.037Z,15.19
2018-11-06T10:07:07.806Z,15.31
2018-11-06T10:08:06.184Z,15.35
2018-11-06T10:09:04.741Z,15.43
2018-11-06T10:10:03.229Z,15.68
2018-11-06T10:11:01.736Z,15.41
2018-11-06T10:12:00.431Z,15.28
2018-11-06T10:12:58.963Z,15.68
2018-11-06T10:13:57.520Z,15.57
2018-11-06T10:14:56.098Z,15.35
2018-11-06T10:15:54.623Z,15.17
2018-11-06T10:16:53.148Z,15.2
2018-11-06T10:17:51.700Z,15.2
2018-11-06T10:18:50.220Z,15.35
2018-11-06T10:19:48.774Z,15.35
2018-11-06T10:20:47.329Z,15.46
2018-11-06T10:21:45.846Z,15.09
2018-11-06T10:22:44.538Z,15.2
2018-11-06T10:23:43.058Z,15.35
2018-11-06T10:24:41.676Z,15.34
2018-11-06T10:25:40.264Z,15.6
2018-11-06T10:26:39.122Z,15.57
2018-11-06T10:27:37.689Z,15.16
2018-11-06T10:28:36.245Z,15.07
2018-11-06T10:29:34.753Z,15.01
2018-11-06T10:30:33.310Z,15.02
2018-11-06T10:31:31.801Z,15.09
2018-11-06T10:32:30.581Z,15.11
2018-11-06T10:33:29.130Z,15.16
2018-11-06T10:34:27.693Z,15.13
2018-11-06T10:35:26.265Z,15.06
2018-11-06T10:36:24.948Z,15.35
2018-11-06T10:37:23.448Z,15.36
2018-11-06T10:38:21.950Z,15.38
2018-11-06T10:41:02.203Z,15.36
2018-11-06T10:42:00.840Z,15.2
2018-11-06T10:42:59.410Z,15.38
2018-11-06T10:43:58.048Z,15.31
2018-11-06T10:44:56.751Z,15.2
2018-11-06T10:45:55.226Z,15.06
2018-11-06T10:46:53.790Z,15.07
2018-11-06T10:47:52.638Z,15.06
2018-11-06T10:48:51.311Z,15.29
2018-11-06T10:51:31.612Z,15.56
2018-11-06T10:52:30.177Z,15.56
2018-11-06T10:53:28.876Z,15.56
2018-11-06T10:54:27.388Z,15.56
2018-11-06T10:55:25.928Z,15.59
2018-11-06T10:56:24.622Z,15.56
2018-11-06T10:57:23.163Z,16.01
2018-11-06T10:58:21.670Z,16.14
2018-11-06T10:59:20.336Z,15.89
2018-11-06T11:00:18.988Z,15.8
2018-11-06T11:01:17.521Z,15.78
2018-11-06T11:02:16.042Z,15.74
2018-11-06T11:03:14.674Z,15.72
2018-11-06T11:04:13.355Z,15.76
2018-11-06T11:05:11.940Z,15.92
2018-11-06T11:06:10.830Z,16.05
2018-11-06T11:07:09.376Z,16.2
2018-11-06T11:08:08.138Z,16.2
2018-11-06T11:09:06.693Z,16.23
2018-11-06T11:10:05.307Z,16.05
2018-11-06T11:11:03.805Z,16.08
2018-11-06T11:12:02.351Z,16.17
2018-11-06T11:13:01.001Z,16.07
2018-11-06T11:13:59.571Z,16.05
2018-11-06T11:14:58.192Z,15.96
2018-11-06T11:15:56.851Z,16.09
2018-11-06T11:16:55.403Z,16.05
2018-11-06T11:17:53.913Z,16.17
2018-11-06T11:18:52.536Z,16.14
2018-11-06T11:19:51.079Z,15.97
2018-11-06T11:20:49.633Z,16.12
2018-11-06T11:21:48.312Z,16.24
2018-11-06T11:22:46.935Z,16.71
2018-11-06T11:23:45.558Z,16.75
2018-11-06T11:24:44.039Z,16.6
2018-11-06T11:26:43.687Z,16.6
2018-11-06T11:29:17.591Z,16.76
2018-11-06T11:30:16.302Z,16.71
2018-11-06T11:31:14.993Z,16.71
2018-11-06T11:32:13.466Z,16.6
2018-11-06T11:33:13.024Z,16.73
2018-11-06T11:34:11.546Z,16.56
2018-11-06T11:35:10.091Z,16.6
2018-11-06T11:36:08.650Z,16.6
2018-11-06T11:37:07.124Z,16.67
2018-11-06T11:38:05.708Z,16.52
2018-11-06T11:39:04.183Z,16.3
2018-11-06T11:40:02.662Z,16.14
2018-11-06T11:41:01.185Z,16.28
2018-11-06T11:41:59.846Z,16.35
2018-11-06T11:42:58.646Z,16.33
2018-11-06T11:43:57.122Z,16.28
2018-11-06T11:44:55.592Z,16.43
2018-11-06T11:45:54.284Z,16.53
2018-11-06T11:46:52.940Z,16.56
2018-11-06T11:47:51.468Z,16.73
2018-11-06T11:48:50.045Z,16.75
2018-11-06T11:49:48.711Z,16.64
2018-11-06T11:50:47.319Z,16.64
2018-11-06T11:51:45.847Z,16.42
2018-11-06T11:52:44.516Z,16.52
2018-11-06T11:53:43.035Z,16.58
2018-11-06T11:54:41.565Z,16.61
2018-11-06T11:55:40.069Z,16.7
2018-11-06T11:56:38.598Z,16.64
2018-11-06T11:58:54.429Z,16.71
2018-11-06T11:59:53.088Z,16.79
2018-11-06T12:00:51.580Z,16.88
2018-11-06T12:01:50.404Z,16.97
2018-11-06T12:02:48.992Z,16.85
2018-11-06T12:03:47.577Z,16.82
2018-11-06T12:04:46.079Z,16.81
2018-11-06T12:05:44.627Z,16.79
2018-11-06T12:06:43.147Z,16.79
2018-11-06T12:07:41.741Z,16.68
2018-11-06T12:08:40.333Z,16.76
2018-11-06T12:09:38.827Z,16.75
2018-11-06T12:10:37.413Z,16.73
2018-11-06T12:11:36.008Z,16.94
2018-11-06T12:12:34.602Z,16.96
2018-11-06T12:13:33.111Z,16.93
2018-11-06T12:14:31.677Z,16.94
2018-11-06T12:15:30.241Z,17.03
2018-11-06T12:16:28.866Z,17.11
2018-11-06T12:17:27.454Z,17.08
2018-11-06T12:18:26.052Z,17.06
2018-11-06T12:19:24.700Z,17.18
2018-11-06T12:20:23.286Z,16.96
2018-11-06T12:21:21.823Z,16.97
2018-11-06T12:22:20.446Z,16.88
2018-11-06T12:23:19.047Z,16.82
2018-11-06T12:24:17.703Z,16.85
2018-11-06T12:26:57.708Z,16.83
2018-11-06T12:27:56.282Z,16.97
2018-11-06T12:28:54.817Z,17.08
2018-11-06T12:29:53.322Z,17.06
2018-11-06T12:30:51.860Z,17.22
2018-11-06T12:31:50.415Z,17.23
2018-11-06T12:32:49.022Z,17.38
2018-11-06T12:33:47.534Z,17.4
2018-11-06T12:34:46.058Z,17.43
2018-11-06T12:35:44.763Z,17.33
2018-11-06T12:36:43.291Z,17.43
2018-11-06T12:37:41.871Z,17.44
2018-11-06T12:38:40.772Z,17.46
2018-11-06T12:39:39.280Z,17.41
2018-11-06T12:40:37.977Z,17.34
2018-11-06T12:41:36.512Z,17.4
2018-11-06T12:42:35.294Z,17.38
2018-11-06T12:43:33.854Z,17.19
2018-11-06T12:44:32.792Z,17.25
2018-11-06T12:45:31.360Z,17.28
2018-11-06T12:46:29.946Z,17.28
2018-11-06T12:47:28.519Z,17.21
2018-11-06T12:48:27.076Z,17.15
2018-11-06T12:49:25.607Z,17.06
2018-11-06T12:50:24.389Z,17.07
2018-11-06T12:51:22.911Z,17.16
2018-11-06T12:52:21.480Z,17.15
2018-11-06T12:53:20.114Z,16.97
2018-11-06T12:54:18.770Z,16.88
2018-11-06T12:55:17.278Z,16.89
2018-11-06T12:56:15.977Z,16.94
2018-11-06T12:57:14.418Z,17
2018-11-06T12:58:12.947Z,16.85
2018-11-06T12:59:11.491Z,16.97
2018-11-06T13:00:09.985Z,17.06
2018-11-06T13:01:08.564Z,17.12
2018-11-06T13:03:48.852Z,17.12
2018-11-06T13:04:48.686Z,17.11
2018-11-06T13:05:46.562Z,17.01
2018-11-06T13:06:45.123Z,16.97
2018-11-06T13:07:43.609Z,17.07
2018-11-06T13:11:22.681Z,17.08
2018-11-06T13:12:21.214Z,17.14
2018-11-06T13:13:19.690Z,17.11
2018-11-06T13:15:42.336Z,16.97
2018-11-06T13:16:40.842Z,17.11
2018-11-06T13:17:39.379Z,17.14
2018-11-06T13:18:37.952Z,17.14
2018-11-06T13:19:36.493Z,17.15
2018-11-06T13:20:34.998Z,17.15
2018-11-06T13:39:36.134Z,16.73
2018-11-06T13:40:34.648Z,16.78
2018-11-06T13:41:33.171Z,16.97
2018-11-06T13:42:31.801Z,16.96
2018-11-06T13:43:30.451Z,16.98
2018-11-06T13:44:28.951Z,16.93
2018-11-06T13:45:27.428Z,16.89
2018-11-06T13:46:25.830Z,16.91
2018-11-06T13:47:24.406Z,16.93
2018-11-06T13:48:22.891Z,16.88
2018-11-06T13:49:21.417Z,16.89
2018-11-06T13:50:19.993Z,16.79
2018-11-06T13:51:18.750Z,16.85
2018-11-06T13:52:17.387Z,16.91
2018-11-06T13:53:15.983Z,16.93
2018-11-06T13:54:14.687Z,16.94
2018-11-06T13:55:13.242Z,16.94
2018-11-06T13:56:11.766Z,16.85
2018-11-06T13:57:10.437Z,16.81
2018-11-06T13:58:09.023Z,16.93
2018-11-06T13:59:07.600Z,16.94
2018-11-06T14:00:06.694Z,16.88
2018-11-06T14:01:05.300Z,16.82
2018-11-06T14:02:03.951Z,16.91
2018-11-06T14:03:02.630Z,17.01
2018-11-06T14:04:01.217Z,16.93
2018-11-06T14:04:59.951Z,16.86
2018-11-06T14:05:58.859Z,16.78
2018-11-06T14:06:57.544Z,16.78
2018-11-06T14:07:56.244Z,16.81
2018-11-06T14:08:56.041Z,16.78
2018-11-06T14:09:54.837Z,16.79
2018-11-06T14:10:53.476Z,16.68
2018-11-06T14:11:52.338Z,16.79
2018-11-06T14:12:50.837Z,16.78
2018-11-06T14:13:49.576Z,16.82
2018-11-06T14:14:48.555Z,16.78
2018-11-06T14:15:47.424Z,16.78
2018-11-06T14:16:46.346Z,16.71
2018-11-06T14:17:45.371Z,16.67
2018-11-06T14:18:44.242Z,16.71
2018-11-06T14:19:43.053Z,16.73
2018-11-06T14:20:41.768Z,16.58
2018-11-06T14:21:40.591Z,16.45
2018-11-06T14:22:41.646Z,16.46
2018-11-06T14:23:40.379Z,16.58
2018-11-06T14:24:39.114Z,16.7
2018-11-06T14:25:37.705Z,16.61
2018-11-06T14:26:36.356Z,16.58
2018-11-06T14:27:35.183Z,16.25
2018-11-06T14:28:33.698Z,16.24
2018-11-06T14:29:32.108Z,16.25
2018-11-06T14:30:30.770Z,16.08
2018-11-06T14:31:29.330Z,15.93
2018-11-06T14:32:28.186Z,16.04
2018-11-06T14:33:27.185Z,15.92
2018-11-06T14:34:27.558Z,16.09
2018-11-06T14:35:26.346Z,16.09
2018-11-06T14:36:25.083Z,16.05
2018-11-06T14:37:23.703Z,16.12
2018-11-06T14:38:22.584Z,16.11
2018-11-06T14:39:21.564Z,16.07
2018-11-06T14:40:20.080Z,15.94
2018-11-06T14:41:18.451Z,15.6
2018-11-06T14:42:17.016Z,15.38
2018-11-06T14:43:15.522Z,15.06
2018-11-06T14:44:14.007Z,14.98
2018-11-06T14:45:12.591Z,14.72
2018-11-06T14:46:11.454Z,14.47
2018-11-06T14:47:10.346Z,14.51
2018-11-06T14:48:09.287Z,14.35
2018-11-06T14:49:07.969Z,14.25
2018-11-06T14:50:06.787Z,14.22
2018-11-06T14:51:05.418Z,14.21
2018-11-06T14:52:04.106Z,14.18